sensor_id;sensor_type;location;lat;lon;timestamp;temperature;humidity
17381;DHT22;8808;52.478;13.378;2023-05-17T00:01:12;10.30;99.90
17381;DHT22;8808;52.478;13.378;2023-05-17T00:03:39;10.10;99.90
17381;DHT22;8808;52.478;13.378;2023-05-17T00:06:08;10.20;99.90
17381;DHT22;8808;52.478;13.378;2023-05-17T00:08:35;10.20;99.90
17381;DHT22;8808;52.478;13.378;2023-05-17T00:11:03;10.00;99.90
17381;DHT22;8808;52.478;13.378;2023-05-17T00:13:30;10.00;99.90
17381;DHT22;8808;52.478;13.378;2023-05-17T00:15:57;9.90;99.90
17381;DHT22;8808;52.478;13.378;2023-05-17T00:18:24;10.10;99.90
17381;DHT22;8808;52.478;13.378;2023-05-17T00:20:51;9.90;99.90
17381;DHT22;8808;52.478;13.378;2023-05-17T00:23:19;10.00;99.90
17381;DHT22;8808;52.478;13.378;2023-05-17T00:25:46;9.90;99.90
17381;DHT22;8808;52.478;13.378;2023-05-17T00:28:13;10.00;99.90
17381;DHT22;8808;52.478;13.378;2023-05-17T00:30:40;10.00;99.90
17381;DHT22;8808;52.478;13.378;2023-05-17T00:33:07;9.90;99.90
17381;DHT22;8808;52.478;13.378;2023-05-17T00:35:34;9.80;99.90
17381;DHT22;8808;52.478;13.378;2023-05-17T00:38:01;9.80;99.90
17381;DHT22;8808;52.478;13.378;2023-05-17T00:40:29;9.80;99.90
17381;DHT22;8808;52.478;13.378;2023-05-17T00:42:56;9.70;99.90
17381;DHT22;8808;52.478;13.378;2023-05-17T00:45:23;9.70;99.90
17381;DHT22;8808;52.478;13.378;2023-05-17T00:47:50;9.60;99.90
17381;DHT22;8808;52.478;13.378;2023-05-17T00:50:17;9.70;99.90
17381;DHT22;8808;52.478;13.378;2023-05-17T00:52:45;9.70;99.90
17381;DHT22;8808;52.478;13.378;2023-05-17T00:55:12;9.70;99.90
17381;DHT22;8808;52.478;13.378;2023-05-17T00:57:40;9.70;99.90
17381;DHT22;8808;52.478;13.378;2023-05-17T01:00:08;9.60;99.90
17381;DHT22;8808;52.478;13.378;2023-05-17T01:02:37;9.70;99.90
17381;DHT22;8808;52.478;13.378;2023-05-17T01:05:05;9.60;99.90
17381;DHT22;8808;52.478;13.378;2023-05-17T01:07:32;9.60;99.90
17381;DHT22;8808;52.478;13.378;2023-05-17T01:09:59;9.00;99.90
17381;DHT22;8808;52.478;13.378;2023-05-17T01:12:42;9.60;99.90
17381;DHT22;8808;52.478;13.378;2023-05-17T01:15:14;9.60;99.90
17381;DHT22;8808;52.478;13.378;2023-05-17T01:17:51;9.60;99.90
17381;DHT22;8808;52.478;13.378;2023-05-17T01:20:23;9.60;99.90
17381;DHT22;8808;52.478;13.378;2023-05-17T01:23:03;9.50;99.90
17381;DHT22;8808;52.478;13.378;2023-05-17T01:25:41;9.60;99.90
17381;DHT22;8808;52.478;13.378;2023-05-17T01:28:15;9.50;99.90
17381;DHT22;8808;52.478;13.378;2023-05-17T01:30:44;9.60;99.90
17381;DHT22;8808;52.478;13.378;2023-05-17T01:33:13;9.60;99.90
17381;DHT22;8808;52.478;13.378;2023-05-17T01:35:40;9.60;99.90
17381;DHT22;8808;52.478;13.378;2023-05-17T01:38:07;9.50;99.90
17381;DHT22;8808;52.478;13.378;2023-05-17T01:40:37;9.40;99.90
17381;DHT22;8808;52.478;13.378;2023-05-17T01:43:11;9.30;99.90
17381;DHT22;8808;52.478;13.378;2023-05-17T01:45:46;9.30;99.90
17381;DHT22;8808;52.478;13.378;2023-05-17T01:48:22;9.40;99.90
17381;DHT22;8808;52.478;13.378;2023-05-17T01:50:51;9.40;99.90
17381;DHT22;8808;52.478;13.378;2023-05-17T01:53:24;9.40;99.90
17381;DHT22;8808;52.478;13.378;2023-05-17T01:55:55;9.50;99.90
17381;DHT22;8808;52.478;13.378;2023-05-17T01:58:24;9.60;99.90
17381;DHT22;8808;52.478;13.378;2023-05-17T02:00:55;9.50;99.90
17381;DHT22;8808;52.478;13.378;2023-05-17T02:03:23;9.40;99.90
17381;DHT22;8808;52.478;13.378;2023-05-17T02:05:50;9.40;99.90
17381;DHT22;8808;52.478;13.378;2023-05-17T02:08:17;9.40;99.90
17381;DHT22;8808;52.478;13.378;2023-05-17T02:10:44;9.40;99.90
17381;DHT22;8808;52.478;13.378;2023-05-17T02:13:11;9.40;99.90
17381;DHT22;8808;52.478;13.378;2023-05-17T02:15:38;9.40;99.90
17381;DHT22;8808;52.478;13.378;2023-05-17T02:18:06;9.40;99.90
17381;DHT22;8808;52.478;13.378;2023-05-17T02:20:33;9.40;99.90
17381;DHT22;8808;52.478;13.378;2023-05-17T02:23:00;9.40;99.90
17381;DHT22;8808;52.478;13.378;2023-05-17T02:25:27;9.40;99.90
17381;DHT22;8808;52.478;13.378;2023-05-17T02:27:54;9.40;99.90
17381;DHT22;8808;52.478;13.378;2023-05-17T02:30:21;9.40;99.90
17381;DHT22;8808;52.478;13.378;2023-05-17T02:32:50;9.50;99.90
17381;DHT22;8808;52.478;13.378;2023-05-17T02:35:19;9.30;99.90
17381;DHT22;8808;52.478;13.378;2023-05-17T02:37:46;9.40;99.90
17381;DHT22;8808;52.478;13.378;2023-05-17T02:40:13;9.40;99.90
17381;DHT22;8808;52.478;13.378;2023-05-17T02:42:40;9.60;99.90
17381;DHT22;8808;52.478;13.378;2023-05-17T02:45:07;9.60;99.90
17381;DHT22;8808;52.478;13.378;2023-05-17T02:47:34;9.60;99.90
17381;DHT22;8808;52.478;13.378;2023-05-17T02:50:01;9.60;99.90
17381;DHT22;8808;52.478;13.378;2023-05-17T02:52:30;9.60;99.90
17381;DHT22;8808;52.478;13.378;2023-05-17T02:54:57;9.70;99.90
17381;DHT22;8808;52.478;13.378;2023-05-17T02:57:23;9.70;99.90
17381;DHT22;8808;52.478;13.378;2023-05-17T02:59:51;9.80;99.90
17381;DHT22;8808;52.478;13.378;2023-05-17T03:02:17;9.80;99.90
17381;DHT22;8808;52.478;13.378;2023-05-17T03:04:44;9.70;99.90
17381;DHT22;8808;52.478;13.378;2023-05-17T03:07:11;9.80;99.90
17381;DHT22;8808;52.478;13.378;2023-05-17T03:09:40;9.90;99.90
17381;DHT22;8808;52.478;13.378;2023-05-17T03:12:08;9.80;99.90
17381;DHT22;8808;52.478;13.378;2023-05-17T03:14:35;9.90;99.90
17381;DHT22;8808;52.478;13.378;2023-05-17T03:17:03;9.90;99.90
17381;DHT22;8808;52.478;13.378;2023-05-17T03:19:30;9.90;99.90
17381;DHT22;8808;52.478;13.378;2023-05-17T03:21:57;10.00;99.90
17381;DHT22;8808;52.478;13.378;2023-05-17T03:24:24;10.00;99.90
17381;DHT22;8808;52.478;13.378;2023-05-17T03:26:52;10.10;99.90
17381;DHT22;8808;52.478;13.378;2023-05-17T03:29:19;10.00;99.90
17381;DHT22;8808;52.478;13.378;2023-05-17T03:31:46;9.90;99.90
17381;DHT22;8808;52.478;13.378;2023-05-17T03:34:13;10.00;99.90
17381;DHT22;8808;52.478;13.378;2023-05-17T03:36:40;10.10;99.90
17381;DHT22;8808;52.478;13.378;2023-05-17T03:39:07;10.10;99.90
17381;DHT22;8808;52.478;13.378;2023-05-17T03:41:34;10.10;99.90
17381;DHT22;8808;52.478;13.378;2023-05-17T03:44:02;10.10;99.90
17381;DHT22;8808;52.478;13.378;2023-05-17T03:46:29;10.00;99.90
17381;DHT22;8808;52.478;13.378;2023-05-17T03:48:56;10.00;99.90
17381;DHT22;8808;52.478;13.378;2023-05-17T03:51:24;9.90;99.90
17381;DHT22;8808;52.478;13.378;2023-05-17T03:53:56;10.00;99.90
17381;DHT22;8808;52.478;13.378;2023-05-17T03:56:23;10.00;99.90
17381;DHT22;8808;52.478;13.378;2023-05-17T03:58:50;10.00;99.90
17381;DHT22;8808;52.478;13.378;2023-05-17T04:01:19;9.90;99.90
17381;DHT22;8808;52.478;13.378;2023-05-17T04:03:46;9.80;99.90
17381;DHT22;8808;52.478;13.378;2023-05-17T04:06:13;9.90;99.90
17381;DHT22;8808;52.478;13.378;2023-05-17T04:08:40;9.80;99.90
17381;DHT22;8808;52.478;13.378;2023-05-17T04:11:07;9.80;99.90
17381;DHT22;8808;52.478;13.378;2023-05-17T04:13:38;9.90;99.90
17381;DHT22;8808;52.478;13.378;2023-05-17T04:16:06;10.00;99.90
17381;DHT22;8808;52.478;13.378;2023-05-17T04:18:35;10.00;99.90
17381;DHT22;8808;52.478;13.378;2023-05-17T04:21:03;10.10;99.90
17381;DHT22;8808;52.478;13.378;2023-05-17T04:23:31;10.10;99.90
17381;DHT22;8808;52.478;13.378;2023-05-17T04:25:58;10.10;99.90
17381;DHT22;8808;52.478;13.378;2023-05-17T04:28:26;10.30;99.90
17381;DHT22;8808;52.478;13.378;2023-05-17T04:30:54;10.40;99.90
17381;DHT22;8808;52.478;13.378;2023-05-17T04:33:21;10.50;99.90
17381;DHT22;8808;52.478;13.378;2023-05-17T04:35:53;10.50;99.90
17381;DHT22;8808;52.478;13.378;2023-05-17T04:38:21;10.40;99.90
17381;DHT22;8808;52.478;13.378;2023-05-17T04:40:48;10.50;99.90
17381;DHT22;8808;52.478;13.378;2023-05-17T04:43:15;10.60;99.90
17381;DHT22;8808;52.478;13.378;2023-05-17T04:45:42;10.50;99.90
17381;DHT22;8808;52.478;13.378;2023-05-17T04:48:09;10.60;99.90
17381;DHT22;8808;52.478;13.378;2023-05-17T04:50:36;10.60;99.90
17381;DHT22;8808;52.478;13.378;2023-05-17T04:53:04;10.80;99.90
17381;DHT22;8808;52.478;13.378;2023-05-17T04:55:31;10.80;99.90
17381;DHT22;8808;52.478;13.378;2023-05-17T04:57:58;10.60;99.90
17381;DHT22;8808;52.478;13.378;2023-05-17T05:00:25;10.70;99.90
17381;DHT22;8808;52.478;13.378;2023-05-17T05:02:52;10.90;99.90
17381;DHT22;8808;52.478;13.378;2023-05-17T05:05:19;11.10;99.90
17381;DHT22;8808;52.478;13.378;2023-05-17T05:07:46;10.80;99.90
17381;DHT22;8808;52.478;13.378;2023-05-17T05:10:14;10.90;99.90
17381;DHT22;8808;52.478;13.378;2023-05-17T05:12:42;11.20;99.90
17381;DHT22;8808;52.478;13.378;2023-05-17T05:15:10;11.20;99.90
17381;DHT22;8808;52.478;13.378;2023-05-17T05:17:37;11.30;99.90
17381;DHT22;8808;52.478;13.378;2023-05-17T05:20:05;11.20;99.90
17381;DHT22;8808;52.478;13.378;2023-05-17T05:22:33;11.30;99.90
17381;DHT22;8808;52.478;13.378;2023-05-17T05:25:00;11.10;99.90
17381;DHT22;8808;52.478;13.378;2023-05-17T05:27:28;11.30;99.90
17381;DHT22;8808;52.478;13.378;2023-05-17T05:29:55;11.60;99.90
17381;DHT22;8808;52.478;13.378;2023-05-17T05:32:22;11.60;99.90
17381;DHT22;8808;52.478;13.378;2023-05-17T05:34:49;11.70;99.90
17381;DHT22;8808;52.478;13.378;2023-05-17T05:37:16;13.00;99.90
17381;DHT22;8808;52.478;13.378;2023-05-17T05:39:44;12.50;99.90
17381;DHT22;8808;52.478;13.378;2023-05-17T05:42:12;11.70;99.90
17381;DHT22;8808;52.478;13.378;2023-05-17T05:44:40;11.50;99.90
17381;DHT22;8808;52.478;13.378;2023-05-17T05:47:07;11.40;99.90
17381;DHT22;8808;52.478;13.378;2023-05-17T05:49:34;11.50;99.90
17381;DHT22;8808;52.478;13.378;2023-05-17T05:52:01;11.80;99.90
17381;DHT22;8808;52.478;13.378;2023-05-17T05:54:28;11.80;99.90
17381;DHT22;8808;52.478;13.378;2023-05-17T05:56:55;11.70;99.90
17381;DHT22;8808;52.478;13.378;2023-05-17T05:59:22;11.60;99.90
17381;DHT22;8808;52.478;13.378;2023-05-17T06:01:50;11.60;99.90
17381;DHT22;8808;52.478;13.378;2023-05-17T06:04:17;11.50;99.90
17381;DHT22;8808;52.478;13.378;2023-05-17T06:06:44;11.30;99.90
17381;DHT22;8808;52.478;13.378;2023-05-17T06:09:11;11.40;99.90
17381;DHT22;8808;52.478;13.378;2023-05-17T06:11:38;11.60;99.90
17381;DHT22;8808;52.478;13.378;2023-05-17T06:14:05;11.60;99.90
17381;DHT22;8808;52.478;13.378;2023-05-17T06:16:33;11.60;99.90
17381;DHT22;8808;52.478;13.378;2023-05-17T06:19:02;11.60;99.90
17381;DHT22;8808;52.478;13.378;2023-05-17T06:21:29;11.30;99.90
17381;DHT22;8808;52.478;13.378;2023-05-17T06:23:56;11.60;99.90
17381;DHT22;8808;52.478;13.378;2023-05-17T06:26:23;11.80;99.90
17381;DHT22;8808;52.478;13.378;2023-05-17T06:28:50;12.00;99.90
17381;DHT22;8808;52.478;13.378;2023-05-17T06:31:17;12.00;99.90
17381;DHT22;8808;52.478;13.378;2023-05-17T06:33:44;12.90;99.90
17381;DHT22;8808;52.478;13.378;2023-05-17T06:36:13;12.40;99.90
17381;DHT22;8808;52.478;13.378;2023-05-17T06:38:40;12.10;99.90
17381;DHT22;8808;52.478;13.378;2023-05-17T06:41:07;12.10;99.90
17381;DHT22;8808;52.478;13.378;2023-05-17T06:43:34;12.60;99.90
17381;DHT22;8808;52.478;13.378;2023-05-17T06:46:01;12.70;99.90
17381;DHT22;8808;52.478;13.378;2023-05-17T06:48:28;12.90;99.90
17381;DHT22;8808;52.478;13.378;2023-05-17T06:50:55;13.00;99.90
17381;DHT22;8808;52.478;13.378;2023-05-17T06:53:23;13.00;99.90
17381;DHT22;8808;52.478;13.378;2023-05-17T06:55:51;13.30;99.90
17381;DHT22;8808;52.478;13.378;2023-05-17T06:58:18;13.30;99.90
17381;DHT22;8808;52.478;13.378;2023-05-17T07:00:45;13.40;99.90
17381;DHT22;8808;52.478;13.378;2023-05-17T07:03:12;13.50;99.90
17381;DHT22;8808;52.478;13.378;2023-05-17T07:05:39;13.40;99.90
17381;DHT22;8808;52.478;13.378;2023-05-17T07:08:06;13.50;99.90
17381;DHT22;8808;52.478;13.378;2023-05-17T07:10:35;13.80;99.90
17381;DHT22;8808;52.478;13.378;2023-05-17T07:13:01;13.70;99.90
17381;DHT22;8808;52.478;13.378;2023-05-17T07:15:28;13.80;99.90
17381;DHT22;8808;52.478;13.378;2023-05-17T07:17:56;14.00;99.90
17381;DHT22;8808;52.478;13.378;2023-05-17T07:20:23;13.50;99.90
17381;DHT22;8808;52.478;13.378;2023-05-17T07:22:50;12.90;99.90
17381;DHT22;8808;52.478;13.378;2023-05-17T07:25:18;12.70;99.90
17381;DHT22;8808;52.478;13.378;2023-05-17T07:27:47;12.80;99.90
17381;DHT22;8808;52.478;13.378;2023-05-17T07:30:14;13.00;99.90
17381;DHT22;8808;52.478;13.378;2023-05-17T07:32:41;13.30;99.90
17381;DHT22;8808;52.478;13.378;2023-05-17T07:35:08;13.50;99.90
17381;DHT22;8808;52.478;13.378;2023-05-17T07:37:35;13.70;99.90
17381;DHT22;8808;52.478;13.378;2023-05-17T07:40:02;13.90;99.90
17381;DHT22;8808;52.478;13.378;2023-05-17T07:42:31;13.70;99.90
17381;DHT22;8808;52.478;13.378;2023-05-17T07:45:00;13.90;98.80
17381;DHT22;8808;52.478;13.378;2023-05-17T07:47:27;13.40;99.30
17381;DHT22;8808;52.478;13.378;2023-05-17T07:49:53;13.70;98.90
17381;DHT22;8808;52.478;13.378;2023-05-17T07:52:20;13.80;97.50
17381;DHT22;8808;52.478;13.378;2023-05-17T07:54:47;13.70;98.80
17381;DHT22;8808;52.478;13.378;2023-05-17T07:57:14;13.90;98.70
17381;DHT22;8808;52.478;13.378;2023-05-17T07:59:41;14.30;96.70
17381;DHT22;8808;52.478;13.378;2023-05-17T08:02:09;13.90;96.50
17381;DHT22;8808;52.478;13.378;2023-05-17T08:04:36;13.50;97.00
17381;DHT22;8808;52.478;13.378;2023-05-17T08:07:04;13.50;96.60
17381;DHT22;8808;52.478;13.378;2023-05-17T08:09:31;13.40;96.50
17381;DHT22;8808;52.478;13.378;2023-05-17T08:11:58;13.60;96.70
17381;DHT22;8808;52.478;13.378;2023-05-17T08:14:26;13.90;96.20
17381;DHT22;8808;52.478;13.378;2023-05-17T08:16:53;14.20;96.40
17381;DHT22;8808;52.478;13.378;2023-05-17T08:19:21;14.30;92.80
17381;DHT22;8808;52.478;13.378;2023-05-17T08:21:48;14.20;92.40
17381;DHT22;8808;52.478;13.378;2023-05-17T08:24:15;14.50;91.70
17381;DHT22;8808;52.478;13.378;2023-05-17T08:26:43;14.60;91.80
17381;DHT22;8808;52.478;13.378;2023-05-17T08:29:10;14.50;91.80
17381;DHT22;8808;52.478;13.378;2023-05-17T08:31:37;14.50;92.60
17381;DHT22;8808;52.478;13.378;2023-05-17T08:34:04;14.60;92.30
17381;DHT22;8808;52.478;13.378;2023-05-17T08:36:32;14.70;92.50
17381;DHT22;8808;52.478;13.378;2023-05-17T08:39:00;14.80;91.50
17381;DHT22;8808;52.478;13.378;2023-05-17T08:41:27;15.00;90.10
17381;DHT22;8808;52.478;13.378;2023-05-17T08:43:54;15.00;89.60
17381;DHT22;8808;52.478;13.378;2023-05-17T08:46:22;14.90;88.80
17381;DHT22;8808;52.478;13.378;2023-05-17T08:48:49;15.20;87.50
17381;DHT22;8808;52.478;13.378;2023-05-17T08:51:21;15.30;88.10
17381;DHT22;8808;52.478;13.378;2023-05-17T08:53:49;15.10;85.80
17381;DHT22;8808;52.478;13.378;2023-05-17T08:56:17;15.20;88.20
17381;DHT22;8808;52.478;13.378;2023-05-17T08:58:47;15.30;87.20
17381;DHT22;8808;52.478;13.378;2023-05-17T09:01:17;15.50;87.50
17381;DHT22;8808;52.478;13.378;2023-05-17T09:03:46;15.40;84.60
17381;DHT22;8808;52.478;13.378;2023-05-17T09:06:15;15.50;85.50
17381;DHT22;8808;52.478;13.378;2023-05-17T09:08:43;15.80;84.40
17381;DHT22;8808;52.478;13.378;2023-05-17T09:11:11;15.60;82.30
17381;DHT22;8808;52.478;13.378;2023-05-17T09:13:38;15.80;83.20
17381;DHT22;8808;52.478;13.378;2023-05-17T09:16:12;16.20;80.70
17381;DHT22;8808;52.478;13.378;2023-05-17T09:18:40;16.00;80.70
17381;DHT22;8808;52.478;13.378;2023-05-17T09:21:07;16.20;79.10
17381;DHT22;8808;52.478;13.378;2023-05-17T09:23:37;16.10;79.60
17381;DHT22;8808;52.478;13.378;2023-05-17T09:26:04;16.40;81.40
17381;DHT22;8808;52.478;13.378;2023-05-17T09:28:38;16.30;80.80
17381;DHT22;8808;52.478;13.378;2023-05-17T09:31:06;16.20;80.80
17381;DHT22;8808;52.478;13.378;2023-05-17T09:33:33;16.20;80.30
17381;DHT22;8808;52.478;13.378;2023-05-17T09:36:00;16.40;79.10
17381;DHT22;8808;52.478;13.378;2023-05-17T09:38:28;16.30;78.80
17381;DHT22;8808;52.478;13.378;2023-05-17T09:40:55;16.20;76.30
17381;DHT22;8808;52.478;13.378;2023-05-17T09:43:23;16.50;77.30
17381;DHT22;8808;52.478;13.378;2023-05-17T09:45:55;16.60;75.20
17381;DHT22;8808;52.478;13.378;2023-05-17T09:48:25;16.50;80.00
17381;DHT22;8808;52.478;13.378;2023-05-17T09:50:53;16.30;77.70
17381;DHT22;8808;52.478;13.378;2023-05-17T09:53:24;16.30;77.00
17381;DHT22;8808;52.478;13.378;2023-05-17T09:55:52;16.60;78.30
17381;DHT22;8808;52.478;13.378;2023-05-17T09:58:19;16.40;73.50
17381;DHT22;8808;52.478;13.378;2023-05-17T10:00:50;16.20;74.70
17381;DHT22;8808;52.478;13.378;2023-05-17T10:03:20;16.70;75.50
17381;DHT22;8808;52.478;13.378;2023-05-17T10:05:50;16.90;73.30
17381;DHT22;8808;52.478;13.378;2023-05-17T10:08:21;17.10;73.60
17381;DHT22;8808;52.478;13.378;2023-05-17T10:10:52;16.90;71.50
17381;DHT22;8808;52.478;13.378;2023-05-17T10:13:22;16.90;72.40
17381;DHT22;8808;52.478;13.378;2023-05-17T10:15:50;16.80;72.10
17381;DHT22;8808;52.478;13.378;2023-05-17T10:18:21;16.70;73.40
17381;DHT22;8808;52.478;13.378;2023-05-17T10:20:49;17.10;71.20
17381;DHT22;8808;52.478;13.378;2023-05-17T10:23:16;17.30;70.80
17381;DHT22;8808;52.478;13.378;2023-05-17T10:25:45;17.00;70.30
17381;DHT22;8808;52.478;13.378;2023-05-17T10:28:13;17.40;69.70
17381;DHT22;8808;52.478;13.378;2023-05-17T10:30:42;17.40;75.50
17381;DHT22;8808;52.478;13.378;2023-05-17T10:33:12;17.20;69.80
17381;DHT22;8808;52.478;13.378;2023-05-17T10:35:43;17.10;70.50
17381;DHT22;8808;52.478;13.378;2023-05-17T10:38:10;17.00;68.90
17381;DHT22;8808;52.478;13.378;2023-05-17T10:40:38;17.10;70.90
17381;DHT22;8808;52.478;13.378;2023-05-17T10:43:08;17.10;69.90
17381;DHT22;8808;52.478;13.378;2023-05-17T10:45:36;17.30;71.20
17381;DHT22;8808;52.478;13.378;2023-05-17T10:48:04;17.10;69.30
17381;DHT22;8808;52.478;13.378;2023-05-17T10:50:32;17.30;69.80
17381;DHT22;8808;52.478;13.378;2023-05-17T10:53:00;17.40;67.80
17381;DHT22;8808;52.478;13.378;2023-05-17T10:55:37;17.50;69.90
17381;DHT22;8808;52.478;13.378;2023-05-17T10:58:15;17.90;68.70
17381;DHT22;8808;52.478;13.378;2023-05-17T11:00:44;17.80;69.10
17381;DHT22;8808;52.478;13.378;2023-05-17T11:03:14;18.10;69.80
17381;DHT22;8808;52.478;13.378;2023-05-17T11:05:42;18.10;68.70
17381;DHT22;8808;52.478;13.378;2023-05-17T11:08:15;18.10;68.20
17381;DHT22;8808;52.478;13.378;2023-05-17T11:11:08;18.30;67.60
17381;DHT22;8808;52.478;13.378;2023-05-17T11:13:46;19.60;84.30
17381;DHT22;8808;52.478;13.378;2023-05-17T11:16:17;22.40;69.90
17381;DHT22;8808;52.478;13.378;2023-05-17T11:18:47;23.10;77.80
17381;DHT22;8808;52.478;13.378;2023-05-17T11:21:15;23.10;81.00
17381;DHT22;8808;52.478;13.378;2023-05-17T11:23:44;20.20;62.90
17381;DHT22;8808;52.478;13.378;2023-05-17T11:26:16;18.60;66.30
17381;DHT22;8808;52.478;13.378;2023-05-17T11:28:44;18.10;66.20
17381;DHT22;8808;52.478;13.378;2023-05-17T11:31:11;18.90;69.50
17381;DHT22;8808;52.478;13.378;2023-05-17T11:33:41;18.60;69.80
17381;DHT22;8808;52.478;13.378;2023-05-17T11:36:14;18.80;66.20
17381;DHT22;8808;52.478;13.378;2023-05-17T11:38:47;18.50;64.40
17381;DHT22;8808;52.478;13.378;2023-05-17T11:41:17;18.40;67.00
17381;DHT22;8808;52.478;13.378;2023-05-17T11:43:47;18.70;65.70
17381;DHT22;8808;52.478;13.378;2023-05-17T11:46:19;18.60;63.70
17381;DHT22;8808;52.478;13.378;2023-05-17T11:48:46;18.60;66.30
17381;DHT22;8808;52.478;13.378;2023-05-17T11:51:15;18.80;64.80
17381;DHT22;8808;52.478;13.378;2023-05-17T11:53:45;18.30;66.30
17381;DHT22;8808;52.478;13.378;2023-05-17T11:56:14;18.70;66.40
17381;DHT22;8808;52.478;13.378;2023-05-17T11:58:42;18.80;66.20
17381;DHT22;8808;52.478;13.378;2023-05-17T12:01:10;18.60;65.20
17381;DHT22;8808;52.478;13.378;2023-05-17T12:03:36;18.90;66.10
17381;DHT22;8808;52.478;13.378;2023-05-17T12:06:05;18.90;64.90
17381;DHT22;8808;52.478;13.378;2023-05-17T12:08:35;18.70;64.60
17381;DHT22;8808;52.478;13.378;2023-05-17T12:11:05;18.70;64.30
17381;DHT22;8808;52.478;13.378;2023-05-17T12:13:33;18.60;63.50
17381;DHT22;8808;52.478;13.378;2023-05-17T12:16:01;18.70;63.20
17381;DHT22;8808;52.478;13.378;2023-05-17T12:18:34;20.30;68.30
17381;DHT22;8808;52.478;13.378;2023-05-17T12:21:03;18.70;62.70
17381;DHT22;8808;52.478;13.378;2023-05-17T12:23:31;18.70;63.60
17381;DHT22;8808;52.478;13.378;2023-05-17T12:26:05;18.70;64.30
17381;DHT22;8808;52.478;13.378;2023-05-17T12:28:32;18.50;64.80
17381;DHT22;8808;52.478;13.378;2023-05-17T12:31:00;18.50;63.30
17381;DHT22;8808;52.478;13.378;2023-05-17T12:33:30;18.80;63.60
17381;DHT22;8808;52.478;13.378;2023-05-17T12:35:57;18.90;63.40
17381;DHT22;8808;52.478;13.378;2023-05-17T12:38:25;18.80;62.40
17381;DHT22;8808;52.478;13.378;2023-05-17T12:40:57;18.70;61.80
17381;DHT22;8808;52.478;13.378;2023-05-17T12:43:25;18.70;65.00
17381;DHT22;8808;52.478;13.378;2023-05-17T12:45:53;19.10;64.80
17381;DHT22;8808;52.478;13.378;2023-05-17T12:48:23;18.70;63.60
17381;DHT22;8808;52.478;13.378;2023-05-17T12:50:51;18.50;65.30
17381;DHT22;8808;52.478;13.378;2023-05-17T12:53:20;18.60;66.40
17381;DHT22;8808;52.478;13.378;2023-05-17T12:55:47;18.90;65.00
17381;DHT22;8808;52.478;13.378;2023-05-17T12:58:14;18.90;64.20
17381;DHT22;8808;52.478;13.378;2023-05-17T13:00:59;18.70;65.00
17381;DHT22;8808;52.478;13.378;2023-05-17T13:03:26;19.00;64.80
17381;DHT22;8808;52.478;13.378;2023-05-17T13:06:04;18.90;63.30
17381;DHT22;8808;52.478;13.378;2023-05-17T13:08:32;18.60;63.90
17381;DHT22;8808;52.478;13.378;2023-05-17T13:11:10;19.70;70.60
17381;DHT22;8808;52.478;13.378;2023-05-17T13:13:37;21.80;80.20
17381;DHT22;8808;52.478;13.378;2023-05-17T13:16:06;23.50;72.70
17381;DHT22;8808;52.478;13.378;2023-05-17T13:18:47;23.30;67.00
17381;DHT22;8808;52.478;13.378;2023-05-17T13:21:15;23.20;64.40
17381;DHT22;8808;52.478;13.378;2023-05-17T13:23:42;22.60;77.00
17381;DHT22;8808;52.478;13.378;2023-05-17T13:26:09;23.20;75.90
17381;DHT22;8808;52.478;13.378;2023-05-17T13:28:37;23.70;76.50
17381;DHT22;8808;52.478;13.378;2023-05-17T13:31:06;23.60;76.80
17381;DHT22;8808;52.478;13.378;2023-05-17T13:33:33;22.90;71.70
17381;DHT22;8808;52.478;13.378;2023-05-17T13:36:00;20.60;61.10
17381;DHT22;8808;52.478;13.378;2023-05-17T13:38:27;20.20;76.10
17381;DHT22;8808;52.478;13.378;2023-05-17T13:40:54;21.40;73.30
17381;DHT22;8808;52.478;13.378;2023-05-17T13:43:21;22.80;79.10
17381;DHT22;8808;52.478;13.378;2023-05-17T13:45:48;21.70;60.60
17381;DHT22;8808;52.478;13.378;2023-05-17T13:48:20;20.50;62.10
17381;DHT22;8808;52.478;13.378;2023-05-17T13:50:47;18.90;65.30
17381;DHT22;8808;52.478;13.378;2023-05-17T13:53:15;18.40;67.20
17381;DHT22;8808;52.478;13.378;2023-05-17T13:55:42;17.60;68.10
17381;DHT22;8808;52.478;13.378;2023-05-17T13:58:09;17.60;68.40
17381;DHT22;8808;52.478;13.378;2023-05-17T14:00:36;18.10;71.40
17381;DHT22;8808;52.478;13.378;2023-05-17T14:03:05;18.00;67.20
17381;DHT22;8808;52.478;13.378;2023-05-17T14:05:34;18.00;66.00
17381;DHT22;8808;52.478;13.378;2023-05-17T14:08:01;17.70;67.40
17381;DHT22;8808;52.478;13.378;2023-05-17T14:10:28;17.90;68.40
17381;DHT22;8808;52.478;13.378;2023-05-17T14:12:55;17.60;67.70
17381;DHT22;8808;52.478;13.378;2023-05-17T14:15:22;17.80;69.60
17381;DHT22;8808;52.478;13.378;2023-05-17T14:17:52;17.60;68.90
17381;DHT22;8808;52.478;13.378;2023-05-17T14:20:19;17.50;66.90
17381;DHT22;8808;52.478;13.378;2023-05-17T14:22:47;17.40;67.20
17381;DHT22;8808;52.478;13.378;2023-05-17T14:25:14;17.50;66.60
17381;DHT22;8808;52.478;13.378;2023-05-17T14:27:41;17.40;66.80
17381;DHT22;8808;52.478;13.378;2023-05-17T14:30:09;17.30;68.20
17381;DHT22;8808;52.478;13.378;2023-05-17T14:32:36;17.40;66.20
17381;DHT22;8808;52.478;13.378;2023-05-17T14:35:04;17.30;66.10
17381;DHT22;8808;52.478;13.378;2023-05-17T14:37:32;17.50;66.90
17381;DHT22;8808;52.478;13.378;2023-05-17T14:40:01;17.30;67.10
17381;DHT22;8808;52.478;13.378;2023-05-17T14:42:28;17.40;67.50
17381;DHT22;8808;52.478;13.378;2023-05-17T14:44:55;17.40;67.20
17381;DHT22;8808;52.478;13.378;2023-05-17T14:47:22;19.10;69.50
17381;DHT22;8808;52.478;13.378;2023-05-17T14:49:49;18.90;65.30
17381;DHT22;8808;52.478;13.378;2023-05-17T14:52:16;18.00;66.80
17381;DHT22;8808;52.478;13.378;2023-05-17T14:54:43;17.50;65.60
17381;DHT22;8808;52.478;13.378;2023-05-17T14:57:12;17.30;66.10
17381;DHT22;8808;52.478;13.378;2023-05-17T14:59:39;17.30;66.80
17381;DHT22;8808;52.478;13.378;2023-05-17T15:02:06;17.00;66.00
17381;DHT22;8808;52.478;13.378;2023-05-17T15:04:33;16.90;67.10
17381;DHT22;8808;52.478;13.378;2023-05-17T15:07:00;16.90;68.40
17381;DHT22;8808;52.478;13.378;2023-05-17T15:09:27;17.10;66.70
17381;DHT22;8808;52.478;13.378;2023-05-17T15:11:55;17.10;67.00
17381;DHT22;8808;52.478;13.378;2023-05-17T15:14:24;17.00;67.50
17381;DHT22;8808;52.478;13.378;2023-05-17T15:16:51;17.40;69.30
17381;DHT22;8808;52.478;13.378;2023-05-17T15:19:18;17.20;67.50
17381;DHT22;8808;52.478;13.378;2023-05-17T15:21:45;17.20;68.50
17381;DHT22;8808;52.478;13.378;2023-05-17T15:24:13;17.10;67.80
17381;DHT22;8808;52.478;13.378;2023-05-17T15:26:40;17.10;67.50
17381;DHT22;8808;52.478;13.378;2023-05-17T15:29:07;16.90;68.00
17381;DHT22;8808;52.478;13.378;2023-05-17T15:31:36;16.90;68.40
17381;DHT22;8808;52.478;13.378;2023-05-17T15:34:03;17.00;66.80
17381;DHT22;8808;52.478;13.378;2023-05-17T15:36:30;17.90;66.50
17381;DHT22;8808;52.478;13.378;2023-05-17T15:38:57;17.20;67.10
17381;DHT22;8808;52.478;13.378;2023-05-17T15:41:24;17.00;68.10